sensor_id;sensor_type;location;lat;lon;timestamp;pressure;altitude;pressure_sealevel;temperature;humidity
34235;BME280;20500;49.856;20.290;2023-02-15T00:01:10;100621.38;;;3.60;75.09
34235;BME280;20500;49.856;20.290;2023-02-15T00:04:19;100616.89;;;3.63;75.07
34235;BME280;20500;49.856;20.290;2023-02-15T00:07:26;100613.02;;;3.64;75.09
34235;BME280;20500;49.856;20.290;2023-02-15T00:10:30;100606.20;;;3.62;75.05
34235;BME280;20500;49.856;20.290;2023-02-15T00:13:37;100609.42;;;3.59;75.13
34235;BME280;20500;49.856;20.290;2023-02-15T00:16:48;100611.34;;;3.60;75.21
34235;BME280;20500;49.856;20.290;2023-02-15T00:19:54;100608.64;;;3.60;75.22
34235;BME280;20500;49.856;20.290;2023-02-15T00:23:01;100606.64;;;3.60;75.14
34235;BME280;20500;49.856;20.290;2023-02-15T00:26:09;100607.05;;;3.63;75.16
34235;BME280;20500;49.856;20.290;2023-02-15T00:29:17;100600.19;;;3.63;75.04
34235;BME280;20500;49.856;20.290;2023-02-15T00:32:24;100595.67;;;3.63;75.03
34235;BME280;20500;49.856;20.290;2023-02-15T00:35:30;100593.60;;;3.59;75.10
34235;BME280;20500;49.856;20.290;2023-02-15T00:38:37;100588.48;;;3.53;75.13
34235;BME280;20500;49.856;20.290;2023-02-15T00:41:43;100588.12;;;3.50;75.18
34235;BME280;20500;49.856;20.290;2023-02-15T00:44:48;100589.06;;;3.52;75.27
34235;BME280;20500;49.856;20.290;2023-02-15T00:47:54;100588.17;;;3.52;75.23
34235;BME280;20500;49.856;20.290;2023-02-15T00:51:01;100588.05;;;3.51;75.34
34235;BME280;20500;49.856;20.290;2023-02-15T00:54:07;100587.51;;;3.51;75.37
34235;BME280;20500;49.856;20.290;2023-02-15T00:57:14;100583.64;;;3.50;75.29
34235;BME280;20500;49.856;20.290;2023-02-15T01:00:18;100579.85;;;3.50;75.32
34235;BME280;20500;49.856;20.290;2023-02-15T01:03:24;100576.77;;;3.51;75.36
34235;BME280;20500;49.856;20.290;2023-02-15T01:06:31;100572.55;;;3.49;75.49
34235;BME280;20500;49.856;20.290;2023-02-15T01:09:37;100569.12;;;3.44;75.33
34235;BME280;20500;49.856;20.290;2023-02-15T01:12:43;100569.32;;;3.44;75.47
34235;BME280;20500;49.856;20.290;2023-02-15T01:15:54;100568.72;;;3.45;75.37
34235;BME280;20500;49.856;20.290;2023-02-15T01:19:00;100566.83;;;3.46;75.47
34235;BME280;20500;49.856;20.290;2023-02-15T01:22:08;100562.98;;;3.47;75.52
34235;BME280;20500;49.856;20.290;2023-02-15T01:25:12;100563.79;;;3.49;75.40
34235;BME280;20500;49.856;20.290;2023-02-15T01:28:18;100562.48;;;3.50;75.44
34235;BME280;20500;49.856;20.290;2023-02-15T01:31:25;100558.89;;;3.50;75.47
34235;BME280;20500;49.856;20.290;2023-02-15T01:34:31;100555.64;;;3.44;75.30
34235;BME280;20500;49.856;20.290;2023-02-15T01:37:38;100553.95;;;3.42;75.43
34235;BME280;20500;49.856;20.290;2023-02-15T01:40:45;100552.89;;;3.42;75.41
34235;BME280;20500;49.856;20.290;2023-02-15T01:43:53;100550.05;;;3.42;75.45
34235;BME280;20500;49.856;20.290;2023-02-15T01:47:00;100544.88;;;3.41;75.36
34235;BME280;20500;49.856;20.290;2023-02-15T01:50:10;100544.00;;;3.41;75.39
34235;BME280;20500;49.856;20.290;2023-02-15T01:53:22;100541.80;;;3.42;75.37
34235;BME280;20500;49.856;20.290;2023-02-15T01:56:33;100538.61;;;3.44;75.46
34235;BME280;20500;49.856;20.290;2023-02-15T01:59:41;100539.00;;;3.46;75.45
34235;BME280;20500;49.856;20.290;2023-02-15T02:02:52;100532.21;;;3.46;75.41
34235;BME280;20500;49.856;20.290;2023-02-15T02:06:00;100527.36;;;3.43;75.42
34235;BME280;20500;49.856;20.290;2023-02-15T02:09:06;100526.05;;;3.41;75.38
34235;BME280;20500;49.856;20.290;2023-02-15T02:12:13;100520.05;;;3.42;75.32
34235;BME280;20500;49.856;20.290;2023-02-15T02:15:23;100521.29;;;3.40;75.24
34235;BME280;20500;49.856;20.290;2023-02-15T02:18:41;100517.45;;;3.27;75.24
34235;BME280;20500;49.856;20.290;2023-02-15T02:22:26;100514.17;;;3.20;75.21
34235;BME280;20500;49.856;20.290;2023-02-15T02:33:21;100500.30;;;3.15;75.27
34235;BME280;20500;49.856;20.290;2023-02-15T02:36:36;100499.35;;;3.14;75.28
34235;BME280;20500;49.856;20.290;2023-02-15T02:39:54;100498.89;;;3.15;75.39
34235;BME280;20500;49.856;20.290;2023-02-15T02:43:08;100494.30;;;3.16;75.27
34235;BME280;20500;49.856;20.290;2023-02-15T02:46:20;100491.80;;;3.16;75.40
34235;BME280;20500;49.856;20.290;2023-02-15T02:49:34;100494.39;;;3.18;75.38
34235;BME280;20500;49.856;20.290;2023-02-15T02:52:43;100483.67;;;3.20;75.39
34235;BME280;20500;49.856;20.290;2023-02-15T02:55:53;100481.45;;;3.21;75.34
34235;BME280;20500;49.856;20.290;2023-02-15T02:59:03;100483.85;;;3.23;75.45
34235;BME280;20500;49.856;20.290;2023-02-15T03:02:14;100486.80;;;3.24;75.42
34235;BME280;20500;49.856;20.290;2023-02-15T03:05:24;100487.31;;;3.25;75.39
34235;BME280;20500;49.856;20.290;2023-02-15T03:08:35;100492.19;;;3.24;75.19
34235;BME280;20500;49.856;20.290;2023-02-15T03:11:44;100497.64;;;3.23;75.32
34235;BME280;20500;49.856;20.290;2023-02-15T03:14:53;100496.13;;;3.25;75.42
34235;BME280;20500;49.856;20.290;2023-02-15T03:18:02;100491.02;;;3.25;75.40
34235;BME280;20500;49.856;20.290;2023-02-15T03:21:10;100491.11;;;3.24;75.34
34235;BME280;20500;49.856;20.290;2023-02-15T03:24:31;100494.48;;;3.22;75.20
34235;BME280;20500;49.856;20.290;2023-02-15T03:27:40;100495.67;;;3.20;75.27
34235;BME280;20500;49.856;20.290;2023-02-15T03:30:51;100498.95;;;3.22;75.32
34235;BME280;20500;49.856;20.290;2023-02-15T03:34:02;100498.23;;;3.22;75.27
34235;BME280;20500;49.856;20.290;2023-02-15T03:37:13;100495.05;;;3.24;75.21
34235;BME280;20500;49.856;20.290;2023-02-15T03:40:26;100493.75;;;3.25;75.17
34235;BME280;20500;49.856;20.290;2023-02-15T03:43:54;100486.65;;;3.24;75.31
34235;BME280;20500;49.856;20.290;2023-02-15T03:47:06;100483.20;;;3.24;75.47
34235;BME280;20500;49.856;20.290;2023-02-15T03:50:18;100479.65;;;3.26;75.38
34235;BME280;20500;49.856;20.290;2023-02-15T03:53:44;100481.92;;;3.25;75.31
34235;BME280;20500;49.856;20.290;2023-02-15T03:56:52;100479.38;;;3.23;75.38
34235;BME280;20500;49.856;20.290;2023-02-15T04:00:18;100479.09;;;3.19;75.18
34235;BME280;20500;49.856;20.290;2023-02-15T04:03:44;100479.41;;;3.19;75.39
34235;BME280;20500;49.856;20.290;2023-02-15T04:06:51;100472.75;;;3.23;75.40
34235;BME280;20500;49.856;20.290;2023-02-15T04:09:58;100473.69;;;3.22;75.40
34235;BME280;20500;49.856;20.290;2023-02-15T04:13:22;100469.88;;;3.14;75.20
34235;BME280;20500;49.856;20.290;2023-02-15T04:16:29;100463.44;;;3.11;75.33
34235;BME280;20500;49.856;20.290;2023-02-15T04:19:36;100462.13;;;3.12;75.40
34235;BME280;20500;49.856;20.290;2023-02-15T04:23:00;100458.63;;;3.13;75.44
34235;BME280;20500;49.856;20.290;2023-02-15T04:26:23;100460.58;;;3.11;75.29
34235;BME280;20500;49.856;20.290;2023-02-15T04:29:30;100461.67;;;3.11;75.37
34235;BME280;20500;49.856;20.290;2023-02-15T04:32:37;100460.96;;;3.13;75.41
34235;BME280;20500;49.856;20.290;2023-02-15T04:35:44;100459.75;;;3.15;75.32
34235;BME280;20500;49.856;20.290;2023-02-15T04:38:51;100454.23;;;3.15;75.36
34235;BME280;20500;49.856;20.290;2023-02-15T04:41:57;100454.25;;;3.15;75.36
34235;BME280;20500;49.856;20.290;2023-02-15T04:45:04;100456.94;;;3.15;75.34
34235;BME280;20500;49.856;20.290;2023-02-15T04:48:11;100459.11;;;3.14;75.34
34235;BME280;20500;49.856;20.290;2023-02-15T04:51:17;100457.81;;;3.15;75.32
34235;BME280;20500;49.856;20.290;2023-02-15T04:54:23;100456.56;;;3.14;75.36
34235;BME280;20500;49.856;20.290;2023-02-15T04:57:30;100455.88;;;3.14;75.43
34235;BME280;20500;49.856;20.290;2023-02-15T05:00:34;100455.59;;;3.16;75.38
34235;BME280;20500;49.856;20.290;2023-02-15T05:03:41;100453.41;;;3.14;75.42
34235;BME280;20500;49.856;20.290;2023-02-15T05:06:47;100455.44;;;3.13;75.44
34235;BME280;20500;49.856;20.290;2023-02-15T05:09:53;100458.31;;;3.13;75.45
34235;BME280;20500;49.856;20.290;2023-02-15T05:13:00;100461.92;;;3.12;75.45
34235;BME280;20500;49.856;20.290;2023-02-15T05:16:06;100467.73;;;3.11;75.48
34235;BME280;20500;49.856;20.290;2023-02-15T05:19:13;100473.68;;;3.11;75.51
34235;BME280;20500;49.856;20.290;2023-02-15T05:22:19;100470.27;;;3.11;75.43
34235;BME280;20500;49.856;20.290;2023-02-15T05:25:23;100468.88;;;3.13;75.49
34235;BME280;20500;49.856;20.290;2023-02-15T05:28:47;100470.83;;;3.11;75.43
34235;BME280;20500;49.856;20.290;2023-02-15T05:31:53;100473.84;;;3.08;75.47
34235;BME280;20500;49.856;20.290;2023-02-15T05:35:00;100478.23;;;3.07;75.48
34235;BME280;20500;49.856;20.290;2023-02-15T05:38:04;100480.77;;;3.07;75.69
34235;BME280;20500;49.856;20.290;2023-02-15T05:41:11;100483.09;;;3.07;75.54
34235;BME280;20500;49.856;20.290;2023-02-15T05:44:18;100480.33;;;3.05;75.46
34235;BME280;20500;49.856;20.290;2023-02-15T05:47:24;100478.80;;;3.04;75.47
34235;BME280;20500;49.856;20.290;2023-02-15T05:50:30;100479.36;;;3.03;75.46
34235;BME280;20500;49.856;20.290;2023-02-15T05:53:37;100481.06;;;3.03;75.58
34235;BME280;20500;49.856;20.290;2023-02-15T05:56:44;100486.47;;;3.02;75.66
34235;BME280;20500;49.856;20.290;2023-02-15T05:59:50;100483.34;;;3.03;75.77
34235;BME280;20500;49.856;20.290;2023-02-15T06:02:55;100485.45;;;2.98;75.68
34235;BME280;20500;49.856;20.290;2023-02-15T06:06:01;100486.03;;;2.98;75.74
34235;BME280;20500;49.856;20.290;2023-02-15T06:09:09;100485.48;;;2.98;75.67
34235;BME280;20500;49.856;20.290;2023-02-15T06:12:15;100482.79;;;2.98;75.66
34235;BME280;20500;49.856;20.290;2023-02-15T06:15:22;100485.55;;;2.97;75.65
34235;BME280;20500;49.856;20.290;2023-02-15T06:18:26;100484.34;;;2.96;75.74
34235;BME280;20500;49.856;20.290;2023-02-15T06:21:32;100484.98;;;2.94;75.66
34235;BME280;20500;49.856;20.290;2023-02-15T06:24:39;100486.04;;;2.95;75.84
34235;BME280;20500;49.856;20.290;2023-02-15T06:27:47;100489.30;;;2.97;75.81
34235;BME280;20500;49.856;20.290;2023-02-15T06:30:54;100489.73;;;2.99;75.66
34235;BME280;20500;49.856;20.290;2023-02-15T06:33:58;100489.91;;;2.96;75.62
34235;BME280;20500;49.856;20.290;2023-02-15T06:37:06;100487.10;;;2.92;75.64
34235;BME280;20500;49.856;20.290;2023-02-15T06:40:14;100487.03;;;2.90;75.60
34235;BME280;20500;49.856;20.290;2023-02-15T06:43:20;100486.40;;;2.86;75.58
34235;BME280;20500;49.856;20.290;2023-02-15T06:46:27;100490.92;;;2.83;75.51
34235;BME280;20500;49.856;20.290;2023-02-15T06:49:34;100490.38;;;2.80;75.57
34235;BME280;20500;49.856;20.290;2023-02-15T06:52:40;100493.29;;;2.77;75.62
34235;BME280;20500;49.856;20.290;2023-02-15T06:55:44;100491.76;;;2.78;75.72
34235;BME280;20500;49.856;20.290;2023-02-15T06:58:51;100489.61;;;2.81;75.71
34235;BME280;20500;49.856;20.290;2023-02-15T07:01:57;100487.98;;;2.84;75.74
34235;BME280;20500;49.856;20.290;2023-02-15T07:05:03;100484.84;;;2.88;75.77
34235;BME280;20500;49.856;20.290;2023-02-15T07:08:10;100483.77;;;2.88;75.65
34235;BME280;20500;49.856;20.290;2023-02-15T07:11:16;100485.35;;;2.85;75.57
34235;BME280;20500;49.856;20.290;2023-02-15T07:14:40;100482.47;;;2.83;75.66
34235;BME280;20500;49.856;20.290;2023-02-15T07:17:44;100481.55;;;2.83;75.64
34235;BME280;20500;49.856;20.290;2023-02-15T07:20:51;100482.59;;;2.81;75.72
34235;BME280;20500;49.856;20.290;2023-02-15T07:23:58;100477.48;;;2.85;75.86
34235;BME280;20500;49.856;20.290;2023-02-15T07:27:05;100473.83;;;2.89;75.80
34235;BME280;20500;49.856;20.290;2023-02-15T07:30:15;100470.77;;;2.95;75.74
34235;BME280;20500;49.856;20.290;2023-02-15T07:33:21;100470.04;;;2.95;75.72
34235;BME280;20500;49.856;20.290;2023-02-15T07:36:31;100468.61;;;2.98;75.79
34235;BME280;20500;49.856;20.290;2023-02-15T07:39:36;100468.84;;;3.03;75.69
34235;BME280;20500;49.856;20.290;2023-02-15T07:42:42;100467.90;;;3.03;75.76
34235;BME280;20500;49.856;20.290;2023-02-15T07:45:47;100463.06;;;3.06;75.73
34235;BME280;20500;49.856;20.290;2023-02-15T07:48:53;100462.35;;;3.09;75.76
34235;BME280;20500;49.856;20.290;2023-02-15T07:52:01;100458.28;;;3.13;75.76
34235;BME280;20500;49.856;20.290;2023-02-15T07:55:08;100462.15;;;3.20;75.93
34235;BME280;20500;49.856;20.290;2023-02-15T07:58:17;100460.08;;;3.24;75.73
34235;BME280;20500;49.856;20.290;2023-02-15T08:01:27;100459.80;;;3.28;75.72
34235;BME280;20500;49.856;20.290;2023-02-15T08:04:33;100456.30;;;3.37;75.90
34235;BME280;20500;49.856;20.290;2023-02-15T08:07:39;100452.84;;;3.47;75.85
34235;BME280;20500;49.856;20.290;2023-02-15T08:10:46;100448.48;;;3.50;75.62
34235;BME280;20500;49.856;20.290;2023-02-15T08:14:11;100444.17;;;3.48;75.63
34235;BME280;20500;49.856;20.290;2023-02-15T08:17:17;100440.90;;;3.46;75.70
34235;BME280;20500;49.856;20.290;2023-02-15T08:20:23;100440.06;;;3.47;75.70
34235;BME280;20500;49.856;20.290;2023-02-15T08:23:30;100437.33;;;3.45;75.63
34235;BME280;20500;49.856;20.290;2023-02-15T08:26:34;100436.38;;;3.43;75.61
34235;BME280;20500;49.856;20.290;2023-02-15T08:29:41;100435.71;;;3.45;75.71
34235;BME280;20500;49.856;20.290;2023-02-15T08:32:47;100436.05;;;3.43;75.50
34235;BME280;20500;49.856;20.290;2023-02-15T08:35:54;100434.56;;;3.35;75.46
34235;BME280;20500;49.856;20.290;2023-02-15T08:39:02;100434.16;;;3.31;75.48
34235;BME280;20500;49.856;20.290;2023-02-15T08:42:08;100429.96;;;3.21;75.48
34235;BME280;20500;49.856;20.290;2023-02-15T08:45:15;100430.94;;;3.23;75.56
34235;BME280;20500;49.856;20.290;2023-02-15T08:48:21;100428.11;;;3.27;75.64
34235;BME280;20500;49.856;20.290;2023-02-15T08:51:29;100425.17;;;3.31;75.68
34235;BME280;20500;49.856;20.290;2023-02-15T08:54:35;100420.78;;;3.35;75.54
34235;BME280;20500;49.856;20.290;2023-02-15T08:57:40;100416.86;;;3.40;75.68
34235;BME280;20500;49.856;20.290;2023-02-15T09:00:49;100411.96;;;3.44;75.48
34235;BME280;20500;49.856;20.290;2023-02-15T09:03:56;100412.11;;;3.47;75.54
34235;BME280;20500;49.856;20.290;2023-02-15T09:07:03;100411.91;;;3.47;75.43
34235;BME280;20500;49.856;20.290;2023-02-15T09:10:10;100409.33;;;3.45;75.42
34235;BME280;20500;49.856;20.290;2023-02-15T09:13:17;100404.13;;;3.50;75.48
34235;BME280;20500;49.856;20.290;2023-02-15T09:16:25;100398.52;;;3.56;75.72
34235;BME280;20500;49.856;20.290;2023-02-15T09:19:31;100397.45;;;3.61;75.45
34235;BME280;20500;49.856;20.290;2023-02-15T09:22:37;100397.46;;;3.66;75.48
34235;BME280;20500;49.856;20.290;2023-02-15T09:25:42;100397.66;;;3.72;75.46
34235;BME280;20500;49.856;20.290;2023-02-15T09:28:51;100396.60;;;3.76;75.52
34235;BME280;20500;49.856;20.290;2023-02-15T09:31:57;100394.40;;;3.84;75.48
34235;BME280;20500;49.856;20.290;2023-02-15T09:35:02;100393.67;;;3.90;75.38
34235;BME280;20500;49.856;20.290;2023-02-15T09:38:08;100389.96;;;3.94;75.35
34235;BME280;20500;49.856;20.290;2023-02-15T09:41:35;100381.66;;;4.00;75.47
34235;BME280;20500;49.856;20.290;2023-02-15T09:45:00;100381.39;;;4.06;75.30
34235;BME280;20500;49.856;20.290;2023-02-15T09:48:26;100378.43;;;4.10;75.27
34235;BME280;20500;49.856;20.290;2023-02-15T09:51:48;100379.07;;;4.16;75.30
34235;BME280;20500;49.856;20.290;2023-02-15T09:55:08;100378.83;;;4.20;75.22
34235;BME280;20500;49.856;20.290;2023-02-15T09:58:23;100375.94;;;4.22;75.29
34235;BME280;20500;49.856;20.290;2023-02-15T10:01:39;100370.21;;;4.29;75.19
34235;BME280;20500;49.856;20.290;2023-02-15T10:04:59;100362.67;;;4.39;75.26
34235;BME280;20500;49.856;20.290;2023-02-15T10:08:29;100355.17;;;4.49;75.24
34235;BME280;20500;49.856;20.290;2023-02-15T10:11:47;100349.17;;;4.59;75.20
34235;BME280;20500;49.856;20.290;2023-02-15T10:15:06;100349.77;;;4.66;74.95
34235;BME280;20500;49.856;20.290;2023-02-15T10:18:30;100350.43;;;4.71;75.09
34235;BME280;20500;49.856;20.290;2023-02-15T10:21:50;100348.92;;;4.75;74.94
34235;BME280;20500;49.856;20.290;2023-02-15T10:25:17;100344.14;;;4.81;75.08
34235;BME280;20500;49.856;20.290;2023-02-15T10:28:31;100337.42;;;4.91;75.06
34235;BME280;20500;49.856;20.290;2023-02-15T10:31:47;100332.77;;;5.03;74.99
34235;BME280;20500;49.856;20.290;2023-02-15T10:35:00;100331.33;;;5.12;74.86
34235;BME280;20500;49.856;20.290;2023-02-15T10:38:22;100329.35;;;5.20;74.81
34235;BME280;20500;49.856;20.290;2023-02-15T10:41:39;100325.95;;;5.29;74.66
34235;BME280;20500;49.856;20.290;2023-02-15T10:45:02;100319.16;;;5.35;74.68
34235;BME280;20500;49.856;20.290;2023-02-15T10:48:47;100313.12;;;5.44;74.63
34235;BME280;20500;49.856;20.290;2023-02-15T10:52:13;100307.86;;;5.56;74.65
34235;BME280;20500;49.856;20.290;2023-02-15T10:55:30;100297.02;;;5.67;74.55
34235;BME280;20500;49.856;20.290;2023-02-15T10:58:59;100293.80;;;5.79;74.45
34235;BME280;20500;49.856;20.290;2023-02-15T11:02:15;100291.36;;;5.92;74.53
34235;BME280;20500;49.856;20.290;2023-02-15T11:05:44;100287.25;;;6.05;74.51
34235;BME280;20500;49.856;20.290;2023-02-15T11:08:56;100280.53;;;6.19;74.52
34235;BME280;20500;49.856;20.290;2023-02-15T11:12:10;100274.25;;;6.29;74.30
34235;BME280;20500;49.856;20.290;2023-02-15T11:15:23;100270.60;;;6.41;74.35
34235;BME280;20500;49.856;20.290;2023-02-15T11:18:34;100269.90;;;6.56;74.29
34235;BME280;20500;49.856;20.290;2023-02-15T11:21:44;100264.20;;;6.68;74.26
34235;BME280;20500;49.856;20.290;2023-02-15T11:24:53;100260.04;;;6.79;74.09
34235;BME280;20500;49.856;20.290;2023-02-15T11:28:05;100260.68;;;6.89;73.96
34235;BME280;20500;49.856;20.290;2023-02-15T11:31:18;100258.06;;;6.98;73.96
34235;BME280;20500;49.856;20.290;2023-02-15T11:34:29;100253.62;;;7.12;73.98
34235;BME280;20500;49.856;20.290;2023-02-15T11:37:46;100250.36;;;7.27;74.06
34235;BME280;20500;49.856;20.290;2023-02-15T11:40:56;100250.00;;;7.42;73.96
34235;BME280;20500;49.856;20.290;2023-02-15T11:44:10;100243.86;;;7.56;73.84
34235;BME280;20500;49.856;20.290;2023-02-15T11:47:19;100240.94;;;7.65;73.56
34235;BME280;20500;49.856;20.290;2023-02-15T11:50:24;100238.95;;;7.73;73.51
34235;BME280;20500;49.856;20.290;2023-02-15T11:53:36;100230.08;;;7.85;73.55
34235;BME280;20500;49.856;20.290;2023-02-15T11:56:43;100224.20;;;7.97;73.56
34235;BME280;20500;49.856;20.290;2023-02-15T11:59:53;100219.53;;;8.00;73.34
34235;BME280;20500;49.856;20.290;2023-02-15T12:03:14;100217.10;;;8.05;73.13
34235;BME280;20500;49.856;20.290;2023-02-15T12:06:27;100212.22;;;8.13;72.99
34235;BME280;20500;49.856;20.290;2023-02-15T12:09:36;100207.94;;;8.28;73.03
34235;BME280;20500;49.856;20.290;2023-02-15T12:12:45;100205.17;;;8.45;72.94
34235;BME280;20500;49.856;20.290;2023-02-15T12:15:53;100201.77;;;8.55;72.72
34235;BME280;20500;49.856;20.290;2023-02-15T12:19:02;100195.21;;;8.67;72.70
34235;BME280;20500;49.856;20.290;2023-02-15T12:22:21;100190.55;;;8.80;72.58
34235;BME280;20500;49.856;20.290;2023-02-15T12:25:35;100186.44;;;8.89;72.12
34235;BME280;20500;49.856;20.290;2023-02-15T12:28:43;100183.08;;;8.96;72.00
34235;BME280;20500;49.856;20.290;2023-02-15T12:31:51;100178.27;;;9.05;72.17
34235;BME280;20500;49.856;20.290;2023-02-15T12:35:07;100172.41;;;9.13;71.97
34235;BME280;20500;49.856;20.290;2023-02-15T12:38:22;100168.98;;;9.15;71.78
34235;BME280;20500;49.856;20.290;2023-02-15T12:41:29;100163.61;;;9.16;71.45
34235;BME280;20500;49.856;20.290;2023-02-15T12:44:33;100160.71;;;9.19;71.51
34235;BME280;20500;49.856;20.290;2023-02-15T12:47:40;100152.64;;;9.26;71.39
34235;BME280;20500;49.856;20.290;2023-02-15T12:50:47;100148.73;;;9.27;71.29
34235;BME280;20500;49.856;20.290;2023-02-15T12:54:03;100146.59;;;9.33;71.03
34235;BME280;20500;49.856;20.290;2023-02-15T12:57:29;100140.77;;;9.41;70.86
34235;BME280;20500;49.856;20.290;2023-02-15T13:00:36;100141.13;;;9.44;70.74
34235;BME280;20500;49.856;20.290;2023-02-15T13:03:56;100142.30;;;9.47;70.61
34235;BME280;20500;49.856;20.290;2023-02-15T13:07:04;100137.29;;;9.54;70.59
34235;BME280;20500;49.856;20.290;2023-02-15T13:10:22;100138.19;;;9.65;70.75
34235;BME280;20500;49.856;20.290;2023-02-15T13:13:31;100135.54;;;9.76;70.59
34235;BME280;20500;49.856;20.290;2023-02-15T13:16:38;100137.95;;;9.79;70.20
34235;BME280;20500;49.856;20.290;2023-02-15T13:19:47;100131.64;;;9.82;70.14
34235;BME280;20500;49.856;20.290;2023-02-15T13:22:58;100126.85;;;9.88;70.10
34235;BME280;20500;49.856;20.290;2023-02-15T13:26:09;100123.32;;;9.95;70.04
34235;BME280;20500;49.856;20.290;2023-02-15T13:29:21;100122.58;;;9.95;69.65
34235;BME280;20500;49.856;20.290;2023-02-15T13:32:31;100119.51;;;9.89;69.63
34235;BME280;20500;49.856;20.290;2023-02-15T13:35:44;100121.58;;;9.85;69.36
34235;BME280;20500;49.856;20.290;2023-02-15T13:39:00;100118.31;;;9.80;69.21
34235;BME280;20500;49.856;20.290;2023-02-15T13:42:17;100111.53;;;9.80;69.20
34235;BME280;20500;49.856;20.290;2023-02-15T13:45:35;100112.44;;;9.85;69.13
34235;BME280;20500;49.856;20.290;2023-02-15T13:48:50;100107.73;;;9.89;68.96
34235;BME280;20500;49.856;20.290;2023-02-15T13:52:01;100104.23;;;9.88;68.72
34235;BME280;20500;49.856;20.290;2023-02-15T13:55:26;100101.54;;;9.84;68.57
34235;BME280;20500;49.856;20.290;2023-02-15T13:59:01;100098.53;;;9.85;68.48
34235;BME280;20500;49.856;20.290;2023-02-15T14:02:19;100094.14;;;9.87;68.38
34235;BME280;20500;49.856;20.290;2023-02-15T14:05:38;100092.33;;;9.93;68.46
34235;BME280;20500;49.856;20.290;2023-02-15T14:09:01;100087.14;;;9.94;68.15
34235;BME280;20500;49.856;20.290;2023-02-15T14:12:32;100084.21;;;9.90;68.02
34235;BME280;20500;49.856;20.290;2023-02-15T14:15:45;100083.79;;;9.86;67.83
34235;BME280;20500;49.856;20.290;2023-02-15T14:18:58;100081.77;;;9.82;67.62
34235;BME280;20500;49.856;20.290;2023-02-15T14:22:15;100078.78;;;9.79;67.55
34235;BME280;20500;49.856;20.290;2023-02-15T14:25:28;100080.66;;;9.77;67.60
34235;BME280;20500;49.856;20.290;2023-02-15T14:28:40;100074.02;;;9.72;67.42
34235;BME280;20500;49.856;20.290;2023-02-15T14:31:52;100074.37;;;9.71;67.40
34235;BME280;20500;49.856;20.290;2023-02-15T14:35:01;100072.54;;;9.69;67.25
34235;BME280;20500;49.856;20.290;2023-02-15T14:38:17;100068.17;;;9.65;67.13
34235;BME280;20500;49.856;20.290;2023-02-15T14:41:31;100065.40;;;9.61;67.09
34235;BME280;20500;49.856;20.290;2023-02-15T14:44:47;100062.67;;;9.53;66.94
34235;BME280;20500;49.856;20.290;2023-02-15T14:48:02;100058.33;;;9.48;66.74
34235;BME280;20500;49.856;20.290;2023-02-15T14:51:11;100055.09;;;9.46;66.66
34235;BME280;20500;49.856;20.290;2023-02-15T14:54:56;100057.38;;;9.43;66.66
34235;BME280;20500;49.856;20.290;2023-02-15T14:58:09;100058.77;;;9.38;66.58
34235;BME280;20500;49.856;20.290;2023-02-15T15:01:17;100059.06;;;9.31;66.39
34235;BME280;20500;49.856;20.290;2023-02-15T15:04:34;100056.09;;;9.24;66.47
34235;BME280;20500;49.856;20.290;2023-02-15T15:07:46;100051.91;;;9.19;66.47
34235;BME280;20500;49.856;20.290;2023-02-15T15:10:53;100052.60;;;9.12;66.52
34235;BME280;20500;49.856;20.290;2023-02-15T15:14:01;100050.15;;;9.04;66.53
34235;BME280;20500;49.856;20.290;2023-02-15T15:17:12;100046.64;;;8.95;66.53
34235;BME280;20500;49.856;20.290;2023-02-15T15:20:44;100048.09;;;8.84;66.54
34235;BME280;20500;49.856;20.290;2023-02-15T15:23:50;100051.06;;;8.66;66.34
34235;BME280;20500;49.856;20.290;2023-02-15T15:38:15;100050.13;;;7.98;66.50
34235;BME280;20500;49.856;20.290;2023-02-15T15:41:41;100042.72;;;7.87;66.51
34235;BME280;20500;49.856;20.290;2023-02-15T15:45:22;100045.11;;;7.78;66.62
34235;BME280;20500;49.856;20.290;2023-02-15T15:48:33;100040.52;;;7.67;66.53
34235;BME280;20500;49.856;20.290;2023-02-15T15:51:44;100040.90;;;7.57;66.47
34235;BME280;20500;49.856;20.290;2023-02-15T15:54:54;100038.91;;;7.47;66.55
34235;BME280;20500;49.856;20.290;2023-02-15T15:58:03;100036.99;;;7.38;66.55
34235;BME280;20500;49.856;20.290;2023-02-15T16:01:12;100034.57;;;7.27;66.57
34235;BME280;20500;49.856;20.290;2023-02-15T16:04:27;100033.19;;;7.16;66.51
34235;BME280;20500;49.856;20.290;2023-02-15T16:07:34;100034.29;;;7.06;66.53
34235;BME280;20500;49.856;20.290;2023-02-15T16:10:39;100032.61;;;6.90;66.43
34235;BME280;20500;49.856;20.290;2023-02-15T16:13:46;100031.14;;;6.72;66.56
34235;BME280;20500;49.856;20.290;2023-02-15T16:16:55;100030.42;;;6.58;66.66
34235;BME280;20500;49.856;20.290;2023-02-15T16:20:06;100035.05;;;6.46;66.71
34235;BME280;20500;49.856;20.290;2023-02-15T16:23:26;100036.80;;;6.36;66.83
34235;BME280;20500;49.856;20.290;2023-02-15T16:26:47;100032.22;;;6.24;66.76
34235;BME280;20500;49.856;20.290;2023-02-15T16:29:57;100034.69;;;6.08;66.66
34235;BME280;20500;49.856;20.290;2023-02-15T16:33:06;100038.84;;;5.88;66.74
34235;BME280;20500;49.856;20.290;2023-02-15T16:36:19;100035.92;;;5.71;66.76
34235;BME280;20500;49.856;20.290;2023-02-15T16:39:26;100030.89;;;5.58;66.96
34235;BME280;20500;49.856;20.290;2023-02-15T16:42:33;100031.38;;;5.48;66.95
34235;BME280;20500;49.856;20.290;2023-02-15T16:45:40;100027.07;;;5.37;67.11
34235;BME280;20500;49.856;20.290;2023-02-15T16:48:48;100027.34;;;5.27;67.01
34235;BME280;20500;49.856;20.290;2023-02-15T16:52:01;100031.27;;;5.14;67.02
34235;BME280;20500;49.856;20.290;2023-02-15T16:55:21;100028.84;;;5.02;67.07
34235;BME280;20500;49.856;20.290;2023-02-15T16:58:37;100032.66;;;4.90;67.30